Hlavní strana
METAR-TAF:

METAR-TAF

Letiště :

Murray, Kentucky, Spojené státy americké

zeměpisná šířka: 36-39-52N, zeměpisná délka: 088-22-22W, výška: 176 m

Aktuální stav počasí

Zpráva byla vytvořena před 12 minutami, v 03:35 UTC
Severní vítr 6 kt
Teplota -5°C
Vlhkost vzduchu 86%
Tlak 1029 hPa
Viditelnost: 16.1 km
Oblačno až skoro zataženo ve výšce 7500 ft
Zataženo ve výšce 8000 ft

METAR: KCEY 210335Z AUTO 01006KT 10SM BKN075 OVC080 M05/M07 A3038 RMK AO1

Čas: 21:47 (03:47 UTC)


TAF: chybějící

Stav a předpovědi počasí z více než 4 000 letišť (zprávy METAR a TAF).

Červené a žluté tečky na mapě představují dostupné meteorologické stanice.

Když kurzor umístíte na tečku, zobrazí se název stanice.

Pak kliknutím zobrazíte stav a předpověď počasí.

Chcete-li změnit mapu, kliknutím na zelené tlačítko se znaménkem +mapu přiblížíte, kliknutím na zelené tlačítko se znaménkem – mapu oddálíte a kliknutím na zelené šipky přejdete na sousední mapy.


METAR-TAF: